<?xml version="1.0" encoding="UTF-8" standalone="no" ?>
<gpx xmlns="http://www.topografix.com/GPX/1/1" xmlns:xsi="http://www.w3.org/2001/XMLSchema-instance" xsi:schemaLocation="http://www.topografix.com/GPX/1/1 http://www.topografix.com/GPX/1/1/gpx.xsd" version="1.1" creator="VisuGPX - https://www.visugpx.com">
  <metadata>
    <name>13145790-ROUGE St Jean Arvey Feclaz</name>
  </metadata>
  <trk>
    <name><![CDATA[13145790-ROUGE St Jean Arvey Feclaz]]></name>
    <trkseg>
      <trkpt lat="45.58599" lon="5.99666">
        <ele>583</ele>
        <time>2021-05-29T15:48:17Z</time>
      </trkpt>
      <trkpt lat="45.58601" lon="5.99662">
        <ele>583</ele>
        <time>2021-05-29T15:48:22Z</time>
      </trkpt>
      <trkpt lat="45.58598" lon="5.99642">
        <ele>582</ele>
        <time>2021-05-29T15:48:41Z</time>
      </trkpt>
      <trkpt lat="45.586" lon="5.99576">
        <ele>581</ele>
        <time>2021-05-29T15:49:42Z</time>
      </trkpt>
      <trkpt lat="45.58604" lon="5.99561">
        <ele>582</ele>
        <time>2021-05-29T15:49:57Z</time>
      </trkpt>
      <trkpt lat="45.58605" lon="5.99543">
        <ele>582</ele>
        <time>2021-05-29T15:50:14Z</time>
      </trkpt>
      <trkpt lat="45.58603" lon="5.99437">
        <ele>578</ele>
        <time>2021-05-29T15:51:53Z</time>
      </trkpt>
      <trkpt lat="45.58607" lon="5.99434">
        <ele>578</ele>
        <time>2021-05-29T15:51:59Z</time>
      </trkpt>
      <trkpt lat="45.58618" lon="5.99419">
        <ele>580</ele>
        <time>2021-05-29T15:52:20Z</time>
      </trkpt>
      <trkpt lat="45.58626" lon="5.99416">
        <ele>581</ele>
        <time>2021-05-29T15:52:31Z</time>
      </trkpt>
      <trkpt lat="45.58651" lon="5.99419">
        <ele>586</ele>
        <time>2021-05-29T15:53:04Z</time>
      </trkpt>
      <trkpt lat="45.58664" lon="5.99429">
        <ele>588</ele>
        <time>2021-05-29T15:53:24Z</time>
      </trkpt>
      <trkpt lat="45.58675" lon="5.99432">
        <ele>590</ele>
        <time>2021-05-29T15:53:39Z</time>
      </trkpt>
      <trkpt lat="45.58731" lon="5.99445">
        <ele>602</ele>
        <time>2021-05-29T15:54:54Z</time>
      </trkpt>
      <trkpt lat="45.58748" lon="5.99403">
        <ele>604</ele>
        <time>2021-05-29T15:55:40Z</time>
      </trkpt>
      <trkpt lat="45.58758" lon="5.99372">
        <ele>605</ele>
        <time>2021-05-29T15:56:12Z</time>
      </trkpt>
      <trkpt lat="45.58765" lon="5.99339">
        <ele>605</ele>
        <time>2021-05-29T15:56:44Z</time>
      </trkpt>
      <trkpt lat="45.5877" lon="5.99308">
        <ele>605</ele>
        <time>2021-05-29T15:57:14Z</time>
      </trkpt>
      <trkpt lat="45.58794" lon="5.99246">
        <ele>608</ele>
        <time>2021-05-29T15:58:20Z</time>
      </trkpt>
      <trkpt lat="45.58804" lon="5.99235">
        <ele>609</ele>
        <time>2021-05-29T15:58:37Z</time>
      </trkpt>
      <trkpt lat="45.58845" lon="5.99227">
        <ele>618</ele>
        <time>2021-05-29T15:59:32Z</time>
      </trkpt>
      <trkpt lat="45.58854" lon="5.99212">
        <ele>620</ele>
        <time>2021-05-29T15:59:50Z</time>
      </trkpt>
      <trkpt lat="45.58861" lon="5.99185">
        <ele>620</ele>
        <time>2021-05-29T16:00:17Z</time>
      </trkpt>
      <trkpt lat="45.5887" lon="5.99138">
        <ele>621</ele>
        <time>2021-05-29T16:01:03Z</time>
      </trkpt>
      <trkpt lat="45.58877" lon="5.99127">
        <ele>623</ele>
        <time>2021-05-29T16:01:17Z</time>
      </trkpt>
      <trkpt lat="45.58882" lon="5.99103">
        <ele>623</ele>
        <time>2021-05-29T16:01:40Z</time>
      </trkpt>
      <trkpt lat="45.58893" lon="5.99071">
        <ele>625</ele>
        <time>2021-05-29T16:02:13Z</time>
      </trkpt>
      <trkpt lat="45.58899" lon="5.99039">
        <ele>625</ele>
        <time>2021-05-29T16:02:44Z</time>
      </trkpt>
      <trkpt lat="45.58908" lon="5.99018">
        <ele>627</ele>
        <time>2021-05-29T16:03:07Z</time>
      </trkpt>
      <trkpt lat="45.58921" lon="5.99005">
        <ele>629</ele>
        <time>2021-05-29T16:03:28Z</time>
      </trkpt>
      <trkpt lat="45.58925" lon="5.98994">
        <ele>630</ele>
        <time>2021-05-29T16:03:40Z</time>
      </trkpt>
      <trkpt lat="45.58924" lon="5.98975">
        <ele>627</ele>
        <time>2021-05-29T16:03:58Z</time>
      </trkpt>
      <trkpt lat="45.58956" lon="5.9889">
        <ele>627</ele>
        <time>2021-05-29T16:05:28Z</time>
      </trkpt>
      <trkpt lat="45.58979" lon="5.98869">
        <ele>631</ele>
        <time>2021-05-29T16:06:04Z</time>
      </trkpt>
      <trkpt lat="45.58989" lon="5.98856">
        <ele>632</ele>
        <time>2021-05-29T16:06:22Z</time>
      </trkpt>
      <trkpt lat="45.59" lon="5.98836">
        <ele>633</ele>
        <time>2021-05-29T16:06:46Z</time>
      </trkpt>
      <trkpt lat="45.59025" lon="5.98752">
        <ele>633</ele>
        <time>2021-05-29T16:08:11Z</time>
      </trkpt>
      <trkpt lat="45.59023" lon="5.98741">
        <ele>631</ele>
        <time>2021-05-29T16:08:22Z</time>
      </trkpt>
      <trkpt lat="45.59019" lon="5.98726">
        <ele>629</ele>
        <time>2021-05-29T16:08:37Z</time>
      </trkpt>
      <trkpt lat="45.59011" lon="5.98685">
        <ele>623</ele>
        <time>2021-05-29T16:09:17Z</time>
      </trkpt>
      <trkpt lat="45.59012" lon="5.98665">
        <ele>623</ele>
        <time>2021-05-29T16:09:35Z</time>
      </trkpt>
      <trkpt lat="45.59031" lon="5.98547">
        <ele>626</ele>
        <time>2021-05-29T16:11:28Z</time>
      </trkpt>
      <trkpt lat="45.59035" lon="5.98514">
        <ele>626</ele>
        <time>2021-05-29T16:12:00Z</time>
      </trkpt>
      <trkpt lat="45.59041" lon="5.98495">
        <ele>627</ele>
        <time>2021-05-29T16:12:19Z</time>
      </trkpt>
      <trkpt lat="45.59064" lon="5.98477">
        <ele>634</ele>
        <time>2021-05-29T16:12:54Z</time>
      </trkpt>
      <trkpt lat="45.59074" lon="5.98472">
        <ele>637</ele>
        <time>2021-05-29T16:13:08Z</time>
      </trkpt>
      <trkpt lat="45.59087" lon="5.98476">
        <ele>643</ele>
        <time>2021-05-29T16:13:26Z</time>
      </trkpt>
      <trkpt lat="45.59102" lon="5.98455">
        <ele>644</ele>
        <time>2021-05-29T16:13:54Z</time>
      </trkpt>
      <trkpt lat="45.59139" lon="5.98396">
        <ele>646</ele>
        <time>2021-05-29T16:15:08Z</time>
      </trkpt>
      <trkpt lat="45.59149" lon="5.98384">
        <ele>647</ele>
        <time>2021-05-29T16:15:25Z</time>
      </trkpt>
      <trkpt lat="45.59163" lon="5.9835">
        <ele>647</ele>
        <time>2021-05-29T16:16:02Z</time>
      </trkpt>
      <trkpt lat="45.59167" lon="5.98327">
        <ele>645</ele>
        <time>2021-05-29T16:16:24Z</time>
      </trkpt>
      <trkpt lat="45.59164" lon="5.98315">
        <ele>642</ele>
        <time>2021-05-29T16:16:36Z</time>
      </trkpt>
      <trkpt lat="45.59175" lon="5.98265">
        <ele>638</ele>
        <time>2021-05-29T16:17:25Z</time>
      </trkpt>
      <trkpt lat="45.59177" lon="5.98235">
        <ele>633</ele>
        <time>2021-05-29T16:17:53Z</time>
      </trkpt>
      <trkpt lat="45.5918" lon="5.98218">
        <ele>631</ele>
        <time>2021-05-29T16:18:10Z</time>
      </trkpt>
      <trkpt lat="45.59181" lon="5.98162">
        <ele>622</ele>
        <time>2021-05-29T16:19:02Z</time>
      </trkpt>
      <trkpt lat="45.59177" lon="5.9816">
        <ele>620</ele>
        <time>2021-05-29T16:19:08Z</time>
      </trkpt>
      <trkpt lat="45.59178" lon="5.98157">
        <ele>620</ele>
        <time>2021-05-29T16:19:11Z</time>
      </trkpt>
      <trkpt lat="45.59186" lon="5.98147">
        <ele>622</ele>
        <time>2021-05-29T16:19:25Z</time>
      </trkpt>
      <trkpt lat="45.59193" lon="5.98146">
        <ele>625</ele>
        <time>2021-05-29T16:19:34Z</time>
      </trkpt>
      <trkpt lat="45.59197" lon="5.98152">
        <ele>627</ele>
        <time>2021-05-29T16:19:42Z</time>
      </trkpt>
      <trkpt lat="45.59196" lon="5.98188">
        <ele>632</ele>
        <time>2021-05-29T16:20:16Z</time>
      </trkpt>
      <trkpt lat="45.59199" lon="5.98193">
        <ele>634</ele>
        <time>2021-05-29T16:20:22Z</time>
      </trkpt>
      <trkpt lat="45.59204" lon="5.98193">
        <ele>636</ele>
        <time>2021-05-29T16:20:29Z</time>
      </trkpt>
      <trkpt lat="45.59208" lon="5.98182">
        <ele>636</ele>
        <time>2021-05-29T16:20:40Z</time>
      </trkpt>
      <trkpt lat="45.59214" lon="5.98168">
        <ele>637</ele>
        <time>2021-05-29T16:20:56Z</time>
      </trkpt>
      <trkpt lat="45.59237" lon="5.98145">
        <ele>643</ele>
        <time>2021-05-29T16:21:33Z</time>
      </trkpt>
      <trkpt lat="45.59248" lon="5.98117">
        <ele>644</ele>
        <time>2021-05-29T16:22:03Z</time>
      </trkpt>
      <trkpt lat="45.59256" lon="5.98086">
        <ele>643</ele>
        <time>2021-05-29T16:22:34Z</time>
      </trkpt>
      <trkpt lat="45.5927" lon="5.98061">
        <ele>645</ele>
        <time>2021-05-29T16:23:04Z</time>
      </trkpt>
      <trkpt lat="45.59279" lon="5.98048">
        <ele>647</ele>
        <time>2021-05-29T16:23:21Z</time>
      </trkpt>
      <trkpt lat="45.59288" lon="5.98042">
        <ele>650</ele>
        <time>2021-05-29T16:23:34Z</time>
      </trkpt>
      <trkpt lat="45.5931" lon="5.98016">
        <ele>655</ele>
        <time>2021-05-29T16:24:12Z</time>
      </trkpt>
      <trkpt lat="45.59321" lon="5.98009">
        <ele>659</ele>
        <time>2021-05-29T16:24:28Z</time>
      </trkpt>
      <trkpt lat="45.59327" lon="5.97994">
        <ele>659</ele>
        <time>2021-05-29T16:24:44Z</time>
      </trkpt>
      <trkpt lat="45.59336" lon="5.9798">
        <ele>661</ele>
        <time>2021-05-29T16:25:02Z</time>
      </trkpt>
      <trkpt lat="45.59348" lon="5.97949">
        <ele>662</ele>
        <time>2021-05-29T16:25:35Z</time>
      </trkpt>
      <trkpt lat="45.59395" lon="5.97901">
        <ele>669</ele>
        <time>2021-05-29T16:26:52Z</time>
      </trkpt>
      <trkpt lat="45.59409" lon="5.97892">
        <ele>671</ele>
        <time>2021-05-29T16:27:13Z</time>
      </trkpt>
      <trkpt lat="45.59421" lon="5.97887">
        <ele>674</ele>
        <time>2021-05-29T16:27:29Z</time>
      </trkpt>
      <trkpt lat="45.59431" lon="5.97872">
        <ele>674</ele>
        <time>2021-05-29T16:27:49Z</time>
      </trkpt>
      <trkpt lat="45.59442" lon="5.97867">
        <ele>677</ele>
        <time>2021-05-29T16:28:04Z</time>
      </trkpt>
      <trkpt lat="45.59457" lon="5.97842">
        <ele>675</ele>
        <time>2021-05-29T16:28:35Z</time>
      </trkpt>
      <trkpt lat="45.59479" lon="5.97819">
        <ele>676</ele>
        <time>2021-05-29T16:29:11Z</time>
      </trkpt>
      <trkpt lat="45.59486" lon="5.97809">
        <ele>676</ele>
        <time>2021-05-29T16:29:25Z</time>
      </trkpt>
      <trkpt lat="45.59497" lon="5.97797">
        <ele>677</ele>
        <time>2021-05-29T16:29:43Z</time>
      </trkpt>
      <trkpt lat="45.59505" lon="5.97782">
        <ele>675</ele>
        <time>2021-05-29T16:30:01Z</time>
      </trkpt>
      <trkpt lat="45.59526" lon="5.97783">
        <ele>681</ele>
        <time>2021-05-29T16:30:29Z</time>
      </trkpt>
      <trkpt lat="45.59539" lon="5.97788">
        <ele>686</ele>
        <time>2021-05-29T16:30:47Z</time>
      </trkpt>
      <trkpt lat="45.59572" lon="5.97776">
        <ele>690</ele>
        <time>2021-05-29T16:31:32Z</time>
      </trkpt>
      <trkpt lat="45.59611" lon="5.97774">
        <ele>695</ele>
        <time>2021-05-29T16:32:24Z</time>
      </trkpt>
      <trkpt lat="45.59638" lon="5.97786">
        <ele>701</ele>
        <time>2021-05-29T16:33:02Z</time>
      </trkpt>
      <trkpt lat="45.59662" lon="5.97801">
        <ele>710</ele>
        <time>2021-05-29T16:33:37Z</time>
      </trkpt>
      <trkpt lat="45.59685" lon="5.97805">
        <ele>713</ele>
        <time>2021-05-29T16:34:08Z</time>
      </trkpt>
      <trkpt lat="45.59696" lon="5.97809">
        <ele>716</ele>
        <time>2021-05-29T16:34:23Z</time>
      </trkpt>
      <trkpt lat="45.59706" lon="5.97806">
        <ele>715</ele>
        <time>2021-05-29T16:34:37Z</time>
      </trkpt>
      <trkpt lat="45.59716" lon="5.97808">
        <ele>717</ele>
        <time>2021-05-29T16:34:50Z</time>
      </trkpt>
      <trkpt lat="45.59741" lon="5.97822">
        <ele>726</ele>
        <time>2021-05-29T16:35:26Z</time>
      </trkpt>
      <trkpt lat="45.59768" lon="5.97826">
        <ele>728</ele>
        <time>2021-05-29T16:36:02Z</time>
      </trkpt>
      <trkpt lat="45.5978" lon="5.97833">
        <ele>731</ele>
        <time>2021-05-29T16:36:19Z</time>
      </trkpt>
      <trkpt lat="45.59806" lon="5.97854">
        <ele>743</ele>
        <time>2021-05-29T16:36:59Z</time>
      </trkpt>
      <trkpt lat="45.5982" lon="5.97863">
        <ele>748</ele>
        <time>2021-05-29T16:37:20Z</time>
      </trkpt>
      <trkpt lat="45.59843" lon="5.97867">
        <ele>751</ele>
        <time>2021-05-29T16:37:51Z</time>
      </trkpt>
      <trkpt lat="45.59868" lon="5.97875">
        <ele>757</ele>
        <time>2021-05-29T16:38:25Z</time>
      </trkpt>
      <trkpt lat="45.5988" lon="5.97877">
        <ele>758</ele>
        <time>2021-05-29T16:38:41Z</time>
      </trkpt>
      <trkpt lat="45.59893" lon="5.97871">
        <ele>755</ele>
        <time>2021-05-29T16:38:59Z</time>
      </trkpt>
      <trkpt lat="45.59905" lon="5.97871">
        <ele>756</ele>
        <time>2021-05-29T16:39:15Z</time>
      </trkpt>
      <trkpt lat="45.59926" lon="5.97851">
        <ele>747</ele>
        <time>2021-05-29T16:39:49Z</time>
      </trkpt>
      <trkpt lat="45.5994" lon="5.97835">
        <ele>740</ele>
        <time>2021-05-29T16:40:13Z</time>
      </trkpt>
      <trkpt lat="45.59947" lon="5.9783">
        <ele>739</ele>
        <time>2021-05-29T16:40:23Z</time>
      </trkpt>
      <trkpt lat="45.59956" lon="5.97828">
        <ele>739</ele>
        <time>2021-05-29T16:40:35Z</time>
      </trkpt>
      <trkpt lat="45.59969" lon="5.97834">
        <ele>744</ele>
        <time>2021-05-29T16:40:54Z</time>
      </trkpt>
      <trkpt lat="45.5998" lon="5.97833">
        <ele>745</ele>
        <time>2021-05-29T16:41:08Z</time>
      </trkpt>
      <trkpt lat="45.60004" lon="5.97803">
        <ele>733</ele>
        <time>2021-05-29T16:41:51Z</time>
      </trkpt>
      <trkpt lat="45.60012" lon="5.9779">
        <ele>728</ele>
        <time>2021-05-29T16:42:07Z</time>
      </trkpt>
      <trkpt lat="45.60021" lon="5.9778">
        <ele>725</ele>
        <time>2021-05-29T16:42:22Z</time>
      </trkpt>
      <trkpt lat="45.60032" lon="5.97776">
        <ele>725</ele>
        <time>2021-05-29T16:42:37Z</time>
      </trkpt>
      <trkpt lat="45.60062" lon="5.97794">
        <ele>738</ele>
        <time>2021-05-29T16:43:21Z</time>
      </trkpt>
      <trkpt lat="45.60083" lon="5.97796">
        <ele>742</ele>
        <time>2021-05-29T16:43:49Z</time>
      </trkpt>
      <trkpt lat="45.601" lon="5.97792">
        <ele>742</ele>
        <time>2021-05-29T16:44:12Z</time>
      </trkpt>
      <trkpt lat="45.60109" lon="5.97784">
        <ele>739</ele>
        <time>2021-05-29T16:44:26Z</time>
      </trkpt>
      <trkpt lat="45.60115" lon="5.97745">
        <ele>723</ele>
        <time>2021-05-29T16:45:03Z</time>
      </trkpt>
      <trkpt lat="45.60131" lon="5.97721">
        <ele>717</ele>
        <time>2021-05-29T16:45:34Z</time>
      </trkpt>
      <trkpt lat="45.60144" lon="5.97721">
        <ele>719</ele>
        <time>2021-05-29T16:45:52Z</time>
      </trkpt>
      <trkpt lat="45.60156" lon="5.97726">
        <ele>722</ele>
        <time>2021-05-29T16:46:08Z</time>
      </trkpt>
      <trkpt lat="45.60168" lon="5.97729">
        <ele>724</ele>
        <time>2021-05-29T16:46:25Z</time>
      </trkpt>
      <trkpt lat="45.60189" lon="5.97738">
        <ele>724</ele>
        <time>2021-05-29T16:46:54Z</time>
      </trkpt>
      <trkpt lat="45.6021" lon="5.97753">
        <ele>725</ele>
        <time>2021-05-29T16:47:25Z</time>
      </trkpt>
      <trkpt lat="45.60217" lon="5.97763">
        <ele>728</ele>
        <time>2021-05-29T16:47:38Z</time>
      </trkpt>
      <trkpt lat="45.60229" lon="5.97765">
        <ele>727</ele>
        <time>2021-05-29T16:47:54Z</time>
      </trkpt>
      <trkpt lat="45.60235" lon="5.97774">
        <ele>730</ele>
        <time>2021-05-29T16:48:06Z</time>
      </trkpt>
      <trkpt lat="45.60238" lon="5.97789">
        <ele>735</ele>
        <time>2021-05-29T16:48:21Z</time>
      </trkpt>
      <trkpt lat="45.60252" lon="5.97819">
        <ele>746</ele>
        <time>2021-05-29T16:48:54Z</time>
      </trkpt>
      <trkpt lat="45.6026" lon="5.97816">
        <ele>743</ele>
        <time>2021-05-29T16:49:05Z</time>
      </trkpt>
      <trkpt lat="45.6027" lon="5.97821">
        <ele>743</ele>
        <time>2021-05-29T16:49:19Z</time>
      </trkpt>
      <trkpt lat="45.60289" lon="5.97837">
        <ele>743</ele>
        <time>2021-05-29T16:49:49Z</time>
      </trkpt>
      <trkpt lat="45.60294" lon="5.97847">
        <ele>745</ele>
        <time>2021-05-29T16:50:00Z</time>
      </trkpt>
      <trkpt lat="45.60304" lon="5.97858">
        <ele>746</ele>
        <time>2021-05-29T16:50:17Z</time>
      </trkpt>
      <trkpt lat="45.6032" lon="5.97884">
        <ele>750</ele>
        <time>2021-05-29T16:50:50Z</time>
      </trkpt>
      <trkpt lat="45.6034" lon="5.97902">
        <ele>752</ele>
        <time>2021-05-29T16:51:21Z</time>
      </trkpt>
      <trkpt lat="45.6035" lon="5.97905">
        <ele>753</ele>
        <time>2021-05-29T16:51:35Z</time>
      </trkpt>
      <trkpt lat="45.6036" lon="5.97912">
        <ele>755</ele>
        <time>2021-05-29T16:51:50Z</time>
      </trkpt>
      <trkpt lat="45.60366" lon="5.97922">
        <ele>758</ele>
        <time>2021-05-29T16:52:02Z</time>
      </trkpt>
      <trkpt lat="45.60377" lon="5.97926">
        <ele>760</ele>
        <time>2021-05-29T16:52:17Z</time>
      </trkpt>
      <trkpt lat="45.60392" lon="5.97926">
        <ele>760</ele>
        <time>2021-05-29T16:52:37Z</time>
      </trkpt>
      <trkpt lat="45.60399" lon="5.97936">
        <ele>764</ele>
        <time>2021-05-29T16:52:50Z</time>
      </trkpt>
      <trkpt lat="45.60402" lon="5.97936">
        <ele>763</ele>
        <time>2021-05-29T16:52:54Z</time>
      </trkpt>
      <trkpt lat="45.60412" lon="5.97941">
        <ele>765</ele>
        <time>2021-05-29T16:53:08Z</time>
      </trkpt>
      <trkpt lat="45.60415" lon="5.97947">
        <ele>767</ele>
        <time>2021-05-29T16:53:15Z</time>
      </trkpt>
      <trkpt lat="45.60422" lon="5.97952">
        <ele>770</ele>
        <time>2021-05-29T16:53:26Z</time>
      </trkpt>
      <trkpt lat="45.60426" lon="5.97959">
        <ele>774</ele>
        <time>2021-05-29T16:53:34Z</time>
      </trkpt>
      <trkpt lat="45.60441" lon="5.97952">
        <ele>776</ele>
        <time>2021-05-29T16:53:55Z</time>
      </trkpt>
      <trkpt lat="45.60475" lon="5.97979">
        <ele>791</ele>
        <time>2021-05-29T16:54:47Z</time>
      </trkpt>
      <trkpt lat="45.60487" lon="5.97982">
        <ele>795</ele>
        <time>2021-05-29T16:55:03Z</time>
      </trkpt>
      <trkpt lat="45.60497" lon="5.9798">
        <ele>796</ele>
        <time>2021-05-29T16:55:17Z</time>
      </trkpt>
      <trkpt lat="45.60522" lon="5.97993">
        <ele>806</ele>
        <time>2021-05-29T16:55:52Z</time>
      </trkpt>
      <trkpt lat="45.60537" lon="5.97981">
        <ele>810</ele>
        <time>2021-05-29T16:56:15Z</time>
      </trkpt>
      <trkpt lat="45.60567" lon="5.97972">
        <ele>821</ele>
        <time>2021-05-29T16:56:56Z</time>
      </trkpt>
      <trkpt lat="45.60557" lon="5.97994">
        <ele>818</ele>
        <time>2021-05-29T16:57:21Z</time>
      </trkpt>
      <trkpt lat="45.60577" lon="5.97991">
        <ele>824</ele>
        <time>2021-05-29T16:57:48Z</time>
      </trkpt>
      <trkpt lat="45.60605" lon="5.97994">
        <ele>835</ele>
        <time>2021-05-29T16:58:25Z</time>
      </trkpt>
      <trkpt lat="45.60625" lon="5.97999">
        <ele>843</ele>
        <time>2021-05-29T16:58:52Z</time>
      </trkpt>
      <trkpt lat="45.60627" lon="5.98004">
        <ele>845</ele>
        <time>2021-05-29T16:58:57Z</time>
      </trkpt>
      <trkpt lat="45.60611" lon="5.98018">
        <ele>843</ele>
        <time>2021-05-29T16:59:23Z</time>
      </trkpt>
      <trkpt lat="45.60603" lon="5.98031">
        <ele>844</ele>
        <time>2021-05-29T16:59:39Z</time>
      </trkpt>
      <trkpt lat="45.60605" lon="5.98034">
        <ele>846</ele>
        <time>2021-05-29T16:59:43Z</time>
      </trkpt>
      <trkpt lat="45.60617" lon="5.98033">
        <ele>850</ele>
        <time>2021-05-29T16:59:59Z</time>
      </trkpt>
      <trkpt lat="45.60631" lon="5.98028">
        <ele>853</ele>
        <time>2021-05-29T17:00:18Z</time>
      </trkpt>
      <trkpt lat="45.60649" lon="5.98011">
        <ele>855</ele>
        <time>2021-05-29T17:00:47Z</time>
      </trkpt>
      <trkpt lat="45.6065" lon="5.98013">
        <ele>856</ele>
        <time>2021-05-29T17:00:49Z</time>
      </trkpt>
      <trkpt lat="45.60642" lon="5.98036">
        <ele>860</ele>
        <time>2021-05-29T17:01:13Z</time>
      </trkpt>
      <trkpt lat="45.6063" lon="5.98054">
        <ele>861</ele>
        <time>2021-05-29T17:01:36Z</time>
      </trkpt>
      <trkpt lat="45.60648" lon="5.98051">
        <ele>866</ele>
        <time>2021-05-29T17:02:00Z</time>
      </trkpt>
      <trkpt lat="45.60642" lon="5.98063">
        <ele>867</ele>
        <time>2021-05-29T17:02:14Z</time>
      </trkpt>
      <trkpt lat="45.60656" lon="5.98055">
        <ele>870</ele>
        <time>2021-05-29T17:02:34Z</time>
      </trkpt>
      <trkpt lat="45.6065" lon="5.98071">
        <ele>872</ele>
        <time>2021-05-29T17:02:51Z</time>
      </trkpt>
      <trkpt lat="45.60669" lon="5.98065">
        <ele>877</ele>
        <time>2021-05-29T17:03:17Z</time>
      </trkpt>
      <trkpt lat="45.60661" lon="5.9808">
        <ele>878</ele>
        <time>2021-05-29T17:03:35Z</time>
      </trkpt>
      <trkpt lat="45.60683" lon="5.98071">
        <ele>885</ele>
        <time>2021-05-29T17:04:05Z</time>
      </trkpt>
      <trkpt lat="45.60676" lon="5.98083">
        <ele>885</ele>
        <time>2021-05-29T17:04:20Z</time>
      </trkpt>
      <trkpt lat="45.60697" lon="5.98074">
        <ele>891</ele>
        <time>2021-05-29T17:04:49Z</time>
      </trkpt>
      <trkpt lat="45.60695" lon="5.98091">
        <ele>896</ele>
        <time>2021-05-29T17:05:05Z</time>
      </trkpt>
      <trkpt lat="45.60712" lon="5.98078">
        <ele>898</ele>
        <time>2021-05-29T17:05:31Z</time>
      </trkpt>
      <trkpt lat="45.60711" lon="5.98097">
        <ele>905</ele>
        <time>2021-05-29T17:05:49Z</time>
      </trkpt>
      <trkpt lat="45.60728" lon="5.98087">
        <ele>908</ele>
        <time>2021-05-29T17:06:13Z</time>
      </trkpt>
      <trkpt lat="45.60728" lon="5.98094">
        <ele>910</ele>
        <time>2021-05-29T17:06:20Z</time>
      </trkpt>
      <trkpt lat="45.60723" lon="5.98102">
        <ele>912</ele>
        <time>2021-05-29T17:06:30Z</time>
      </trkpt>
      <trkpt lat="45.60739" lon="5.98089">
        <ele>913</ele>
        <time>2021-05-29T17:06:54Z</time>
      </trkpt>
      <trkpt lat="45.60765" lon="5.98072">
        <ele>921</ele>
        <time>2021-05-29T17:07:32Z</time>
      </trkpt>
      <trkpt lat="45.60796" lon="5.98062">
        <ele>935</ele>
        <time>2021-05-29T17:08:15Z</time>
      </trkpt>
      <trkpt lat="45.6082" lon="5.98063">
        <ele>947</ele>
        <time>2021-05-29T17:08:47Z</time>
      </trkpt>
      <trkpt lat="45.60853" lon="5.98087">
        <ele>971</ele>
        <time>2021-05-29T17:09:36Z</time>
      </trkpt>
      <trkpt lat="45.60859" lon="5.98103">
        <ele>983</ele>
        <time>2021-05-29T17:09:53Z</time>
      </trkpt>
      <trkpt lat="45.6086" lon="5.98124">
        <ele>993</ele>
        <time>2021-05-29T17:10:13Z</time>
      </trkpt>
      <trkpt lat="45.60865" lon="5.98135">
        <ele>1003</ele>
        <time>2021-05-29T17:10:25Z</time>
      </trkpt>
      <trkpt lat="45.60889" lon="5.98134">
        <ele>1025</ele>
        <time>2021-05-29T17:10:57Z</time>
      </trkpt>
      <trkpt lat="45.60905" lon="5.98129">
        <ele>1037</ele>
        <time>2021-05-29T17:11:19Z</time>
      </trkpt>
      <trkpt lat="45.60921" lon="5.98107">
        <ele>1040</ele>
        <time>2021-05-29T17:11:49Z</time>
      </trkpt>
      <trkpt lat="45.60933" lon="5.98097">
        <ele>1054</ele>
        <time>2021-05-29T17:12:07Z</time>
      </trkpt>
      <trkpt lat="45.60937" lon="5.9807">
        <ele>1053</ele>
        <time>2021-05-29T17:12:33Z</time>
      </trkpt>
      <trkpt lat="45.60938" lon="5.98045">
        <ele>1054</ele>
        <time>2021-05-29T17:12:56Z</time>
      </trkpt>
      <trkpt lat="45.60939" lon="5.98018">
        <ele>1055</ele>
        <time>2021-05-29T17:13:22Z</time>
      </trkpt>
      <trkpt lat="45.60925" lon="5.97997">
        <ele>1031</ele>
        <time>2021-05-29T17:13:49Z</time>
      </trkpt>
      <trkpt lat="45.60895" lon="5.97956">
        <ele>1007</ele>
        <time>2021-05-29T17:14:44Z</time>
      </trkpt>
      <trkpt lat="45.60876" lon="5.97923">
        <ele>999</ele>
        <time>2021-05-29T17:15:24Z</time>
      </trkpt>
      <trkpt lat="45.60863" lon="5.97893">
        <ele>996</ele>
        <time>2021-05-29T17:15:57Z</time>
      </trkpt>
      <trkpt lat="45.60837" lon="5.97855">
        <ele>985</ele>
        <time>2021-05-29T17:16:47Z</time>
      </trkpt>
      <trkpt lat="45.6083" lon="5.97847">
        <ele>982</ele>
        <time>2021-05-29T17:16:59Z</time>
      </trkpt>
      <trkpt lat="45.60817" lon="5.97823">
        <ele>978</ele>
        <time>2021-05-29T17:17:27Z</time>
      </trkpt>
      <trkpt lat="45.60813" lon="5.97806">
        <ele>977</ele>
        <time>2021-05-29T17:17:44Z</time>
      </trkpt>
      <trkpt lat="45.60799" lon="5.97762">
        <ele>971</ele>
        <time>2021-05-29T17:18:29Z</time>
      </trkpt>
      <trkpt lat="45.608" lon="5.97745">
        <ele>974</ele>
        <time>2021-05-29T17:18:45Z</time>
      </trkpt>
      <trkpt lat="45.60804" lon="5.97724">
        <ele>979</ele>
        <time>2021-05-29T17:19:05Z</time>
      </trkpt>
      <trkpt lat="45.60821" lon="5.97672">
        <ele>997</ele>
        <time>2021-05-29T17:19:59Z</time>
      </trkpt>
      <trkpt lat="45.60822" lon="5.97651">
        <ele>999</ele>
        <time>2021-05-29T17:20:18Z</time>
      </trkpt>
      <trkpt lat="45.60818" lon="5.97606">
        <ele>998</ele>
        <time>2021-05-29T17:21:01Z</time>
      </trkpt>
      <trkpt lat="45.60812" lon="5.97584">
        <ele>995</ele>
        <time>2021-05-29T17:21:23Z</time>
      </trkpt>
      <trkpt lat="45.60816" lon="5.97552">
        <ele>997</ele>
        <time>2021-05-29T17:21:53Z</time>
      </trkpt>
      <trkpt lat="45.60844" lon="5.97413">
        <ele>1010</ele>
        <time>2021-05-29T17:24:08Z</time>
      </trkpt>
      <trkpt lat="45.60849" lon="5.97293">
        <ele>1030</ele>
        <time>2021-05-29T17:26:00Z</time>
      </trkpt>
      <trkpt lat="45.60846" lon="5.9727">
        <ele>1034</ele>
        <time>2021-05-29T17:26:22Z</time>
      </trkpt>
      <trkpt lat="45.60834" lon="5.97234">
        <ele>1037</ele>
        <time>2021-05-29T17:26:59Z</time>
      </trkpt>
      <trkpt lat="45.60808" lon="5.97169">
        <ele>1039</ele>
        <time>2021-05-29T17:28:09Z</time>
      </trkpt>
      <trkpt lat="45.60801" lon="5.97145">
        <ele>1040</ele>
        <time>2021-05-29T17:28:33Z</time>
      </trkpt>
      <trkpt lat="45.60799" lon="5.9713">
        <ele>1042</ele>
        <time>2021-05-29T17:28:48Z</time>
      </trkpt>
      <trkpt lat="45.60804" lon="5.97085">
        <ele>1054</ele>
        <time>2021-05-29T17:29:30Z</time>
      </trkpt>
      <trkpt lat="45.60797" lon="5.97057">
        <ele>1057</ele>
        <time>2021-05-29T17:29:58Z</time>
      </trkpt>
      <trkpt lat="45.60784" lon="5.97024">
        <ele>1059</ele>
        <time>2021-05-29T17:30:33Z</time>
      </trkpt>
      <trkpt lat="45.6076" lon="5.97005">
        <ele>1054</ele>
        <time>2021-05-29T17:31:10Z</time>
      </trkpt>
      <trkpt lat="45.60741" lon="5.96972">
        <ele>1061</ele>
        <time>2021-05-29T17:31:50Z</time>
      </trkpt>
      <trkpt lat="45.60718" lon="5.96957">
        <ele>1061</ele>
        <time>2021-05-29T17:32:24Z</time>
      </trkpt>
      <trkpt lat="45.60697" lon="5.96953">
        <ele>1056</ele>
        <time>2021-05-29T17:32:52Z</time>
      </trkpt>
      <trkpt lat="45.6069" lon="5.96948">
        <ele>1056</ele>
        <time>2021-05-29T17:33:02Z</time>
      </trkpt>
      <trkpt lat="45.60666" lon="5.96911">
        <ele>1061</ele>
        <time>2021-05-29T17:33:49Z</time>
      </trkpt>
      <trkpt lat="45.60661" lon="5.96897">
        <ele>1062</ele>
        <time>2021-05-29T17:34:04Z</time>
      </trkpt>
      <trkpt lat="45.6066" lon="5.96872">
        <ele>1068</ele>
        <time>2021-05-29T17:34:27Z</time>
      </trkpt>
      <trkpt lat="45.60632" lon="5.96805">
        <ele>1073</ele>
        <time>2021-05-29T17:35:40Z</time>
      </trkpt>
      <trkpt lat="45.6063" lon="5.96794">
        <ele>1074</ele>
        <time>2021-05-29T17:35:51Z</time>
      </trkpt>
      <trkpt lat="45.60632" lon="5.96784">
        <ele>1077</ele>
        <time>2021-05-29T17:36:01Z</time>
      </trkpt>
      <trkpt lat="45.60635" lon="5.96779">
        <ele>1079</ele>
        <time>2021-05-29T17:36:07Z</time>
      </trkpt>
      <trkpt lat="45.6064" lon="5.96777">
        <ele>1081</ele>
        <time>2021-05-29T17:36:14Z</time>
      </trkpt>
      <trkpt lat="45.60649" lon="5.96775">
        <ele>1085</ele>
        <time>2021-05-29T17:36:26Z</time>
      </trkpt>
      <trkpt lat="45.60665" lon="5.96776">
        <ele>1089</ele>
        <time>2021-05-29T17:36:47Z</time>
      </trkpt>
      <trkpt lat="45.60681" lon="5.96773">
        <ele>1095</ele>
        <time>2021-05-29T17:37:09Z</time>
      </trkpt>
      <trkpt lat="45.60701" lon="5.96766">
        <ele>1102</ele>
        <time>2021-05-29T17:37:36Z</time>
      </trkpt>
      <trkpt lat="45.60715" lon="5.96753">
        <ele>1108</ele>
        <time>2021-05-29T17:37:59Z</time>
      </trkpt>
      <trkpt lat="45.60729" lon="5.96726">
        <ele>1117</ele>
        <time>2021-05-29T17:38:30Z</time>
      </trkpt>
      <trkpt lat="45.60743" lon="5.96687">
        <ele>1127</ele>
        <time>2021-05-29T17:39:11Z</time>
      </trkpt>
      <trkpt lat="45.60767" lon="5.96595">
        <ele>1148</ele>
        <time>2021-05-29T17:40:43Z</time>
      </trkpt>
      <trkpt lat="45.60771" lon="5.96561">
        <ele>1154</ele>
        <time>2021-05-29T17:41:15Z</time>
      </trkpt>
      <trkpt lat="45.60784" lon="5.96517">
        <ele>1165</ele>
        <time>2021-05-29T17:41:59Z</time>
      </trkpt>
      <trkpt lat="45.6082" lon="5.96457">
        <ele>1188</ele>
        <time>2021-05-29T17:43:13Z</time>
      </trkpt>
      <trkpt lat="45.60824" lon="5.96429">
        <ele>1194</ele>
        <time>2021-05-29T17:43:40Z</time>
      </trkpt>
      <trkpt lat="45.60821" lon="5.9635">
        <ele>1214</ele>
        <time>2021-05-29T17:44:54Z</time>
      </trkpt>
      <trkpt lat="45.60837" lon="5.96345">
        <ele>1221</ele>
        <time>2021-05-29T17:45:15Z</time>
      </trkpt>
      <trkpt lat="45.6085" lon="5.96336">
        <ele>1228</ele>
        <time>2021-05-29T17:45:35Z</time>
      </trkpt>
      <trkpt lat="45.60859" lon="5.96324">
        <ele>1234</ele>
        <time>2021-05-29T17:45:51Z</time>
      </trkpt>
      <trkpt lat="45.6085" lon="5.96305">
        <ele>1235</ele>
        <time>2021-05-29T17:46:13Z</time>
      </trkpt>
      <trkpt lat="45.60848" lon="5.96282">
        <ele>1239</ele>
        <time>2021-05-29T17:46:34Z</time>
      </trkpt>
      <trkpt lat="45.60851" lon="5.96259">
        <ele>1244</ele>
        <time>2021-05-29T17:46:56Z</time>
      </trkpt>
      <trkpt lat="45.60861" lon="5.96234">
        <ele>1251</ele>
        <time>2021-05-29T17:47:23Z</time>
      </trkpt>
      <trkpt lat="45.60878" lon="5.96223">
        <ele>1259</ele>
        <time>2021-05-29T17:47:48Z</time>
      </trkpt>
      <trkpt lat="45.6092" lon="5.96205">
        <ele>1274</ele>
        <time>2021-05-29T17:48:46Z</time>
      </trkpt>
      <trkpt lat="45.60927" lon="5.96204">
        <ele>1274</ele>
        <time>2021-05-29T17:48:56Z</time>
      </trkpt>
      <trkpt lat="45.60946" lon="5.96218">
        <ele>1275</ele>
        <time>2021-05-29T17:49:24Z</time>
      </trkpt>
      <trkpt lat="45.60951" lon="5.96223">
        <ele>1276</ele>
        <time>2021-05-29T17:49:32Z</time>
      </trkpt>
      <trkpt lat="45.60954" lon="5.96232">
        <ele>1276</ele>
        <time>2021-05-29T17:49:42Z</time>
      </trkpt>
      <trkpt lat="45.6098" lon="5.96255">
        <ele>1280</ele>
        <time>2021-05-29T17:50:23Z</time>
      </trkpt>
      <trkpt lat="45.60999" lon="5.96278">
        <ele>1286</ele>
        <time>2021-05-29T17:50:56Z</time>
      </trkpt>
      <trkpt lat="45.61007" lon="5.96284">
        <ele>1287</ele>
        <time>2021-05-29T17:51:08Z</time>
      </trkpt>
      <trkpt lat="45.6101" lon="5.9629">
        <ele>1288</ele>
        <time>2021-05-29T17:51:15Z</time>
      </trkpt>
      <trkpt lat="45.61022" lon="5.96309">
        <ele>1293</ele>
        <time>2021-05-29T17:51:39Z</time>
      </trkpt>
      <trkpt lat="45.61029" lon="5.96324">
        <ele>1297</ele>
        <time>2021-05-29T17:51:55Z</time>
      </trkpt>
      <trkpt lat="45.61049" lon="5.96349">
        <ele>1305</ele>
        <time>2021-05-29T17:52:31Z</time>
      </trkpt>
      <trkpt lat="45.61058" lon="5.96358">
        <ele>1309</ele>
        <time>2021-05-29T17:52:46Z</time>
      </trkpt>
      <trkpt lat="45.61065" lon="5.96369">
        <ele>1313</ele>
        <time>2021-05-29T17:52:59Z</time>
      </trkpt>
      <trkpt lat="45.61075" lon="5.9638">
        <ele>1318</ele>
        <time>2021-05-29T17:53:16Z</time>
      </trkpt>
      <trkpt lat="45.61077" lon="5.96386">
        <ele>1320</ele>
        <time>2021-05-29T17:53:22Z</time>
      </trkpt>
      <trkpt lat="45.61083" lon="5.96397">
        <ele>1324</ele>
        <time>2021-05-29T17:53:35Z</time>
      </trkpt>
      <trkpt lat="45.61094" lon="5.96406">
        <ele>1328</ele>
        <time>2021-05-29T17:53:52Z</time>
      </trkpt>
      <trkpt lat="45.61111" lon="5.96428">
        <ele>1335</ele>
        <time>2021-05-29T17:54:23Z</time>
      </trkpt>
      <trkpt lat="45.61129" lon="5.96445">
        <ele>1341</ele>
        <time>2021-05-29T17:54:52Z</time>
      </trkpt>
      <trkpt lat="45.61149" lon="5.96473">
        <ele>1349</ele>
        <time>2021-05-29T17:55:29Z</time>
      </trkpt>
      <trkpt lat="45.61186" lon="5.96506">
        <ele>1369</ele>
        <time>2021-05-29T17:56:27Z</time>
      </trkpt>
      <trkpt lat="45.61187" lon="5.9651">
        <ele>1370</ele>
        <time>2021-05-29T17:56:31Z</time>
      </trkpt>
      <trkpt lat="45.61208" lon="5.96532">
        <ele>1382</ele>
        <time>2021-05-29T17:57:06Z</time>
      </trkpt>
      <trkpt lat="45.61217" lon="5.96549">
        <ele>1389</ele>
        <time>2021-05-29T17:57:26Z</time>
      </trkpt>
      <trkpt lat="45.61229" lon="5.96593">
        <ele>1400</ele>
        <time>2021-05-29T17:58:10Z</time>
      </trkpt>
      <trkpt lat="45.61237" lon="5.96637">
        <ele>1408</ele>
        <time>2021-05-29T17:58:52Z</time>
      </trkpt>
      <trkpt lat="45.6125" lon="5.96685">
        <ele>1420</ele>
        <time>2021-05-29T17:59:41Z</time>
      </trkpt>
      <trkpt lat="45.61258" lon="5.96741">
        <ele>1426</ele>
        <time>2021-05-29T18:00:34Z</time>
      </trkpt>
      <trkpt lat="45.61264" lon="5.96768">
        <ele>1433</ele>
        <time>2021-05-29T18:01:00Z</time>
      </trkpt>
      <trkpt lat="45.61266" lon="5.96803">
        <ele>1435</ele>
        <time>2021-05-29T18:01:33Z</time>
      </trkpt>
      <trkpt lat="45.61262" lon="5.96844">
        <ele>1431</ele>
        <time>2021-05-29T18:02:12Z</time>
      </trkpt>
      <trkpt lat="45.61276" lon="5.96847">
        <ele>1445</ele>
        <time>2021-05-29T18:02:31Z</time>
      </trkpt>
      <trkpt lat="45.61278" lon="5.96841">
        <ele>1448</ele>
        <time>2021-05-29T18:02:37Z</time>
      </trkpt>
      <trkpt lat="45.61285" lon="5.96834">
        <ele>1455</ele>
        <time>2021-05-29T18:02:48Z</time>
      </trkpt>
      <trkpt lat="45.6129" lon="5.9682">
        <ele>1460</ele>
        <time>2021-05-29T18:03:03Z</time>
      </trkpt>
      <trkpt lat="45.6129" lon="5.96814">
        <ele>1460</ele>
        <time>2021-05-29T18:03:09Z</time>
      </trkpt>
      <trkpt lat="45.61295" lon="5.96806">
        <ele>1465</ele>
        <time>2021-05-29T18:03:19Z</time>
      </trkpt>
      <trkpt lat="45.61303" lon="5.96785">
        <ele>1474</ele>
        <time>2021-05-29T18:03:41Z</time>
      </trkpt>
      <trkpt lat="45.61303" lon="5.96774">
        <ele>1474</ele>
        <time>2021-05-29T18:03:51Z</time>
      </trkpt>
      <trkpt lat="45.6131" lon="5.96751">
        <ele>1482</ele>
        <time>2021-05-29T18:04:15Z</time>
      </trkpt>
      <trkpt lat="45.6132" lon="5.96746">
        <ele>1493</ele>
        <time>2021-05-29T18:04:29Z</time>
      </trkpt>
      <trkpt lat="45.6133" lon="5.96727">
        <ele>1503</ele>
        <time>2021-05-29T18:04:51Z</time>
      </trkpt>
      <trkpt lat="45.61338" lon="5.96719">
        <ele>1507</ele>
        <time>2021-05-29T18:05:04Z</time>
      </trkpt>
      <trkpt lat="45.61367" lon="5.96708">
        <ele>1510</ele>
        <time>2021-05-29T18:05:44Z</time>
      </trkpt>
      <trkpt lat="45.61358" lon="5.96689">
        <ele>1509</ele>
        <time>2021-05-29T18:06:05Z</time>
      </trkpt>
      <trkpt lat="45.61356" lon="5.96667">
        <ele>1508</ele>
        <time>2021-05-29T18:06:26Z</time>
      </trkpt>
      <trkpt lat="45.61363" lon="5.96643">
        <ele>1496</ele>
        <time>2021-05-29T18:06:50Z</time>
      </trkpt>
      <trkpt lat="45.61347" lon="5.96597">
        <ele>1467</ele>
        <time>2021-05-29T18:07:38Z</time>
      </trkpt>
      <trkpt lat="45.61348" lon="5.96578">
        <ele>1458</ele>
        <time>2021-05-29T18:07:56Z</time>
      </trkpt>
      <trkpt lat="45.61353" lon="5.96562">
        <ele>1453</ele>
        <time>2021-05-29T18:08:12Z</time>
      </trkpt>
      <trkpt lat="45.61353" lon="5.96552">
        <ele>1450</ele>
        <time>2021-05-29T18:08:22Z</time>
      </trkpt>
      <trkpt lat="45.61356" lon="5.9655">
        <ele>1449</ele>
        <time>2021-05-29T18:08:26Z</time>
      </trkpt>
      <trkpt lat="45.61366" lon="5.96556">
        <ele>1453</ele>
        <time>2021-05-29T18:08:41Z</time>
      </trkpt>
      <trkpt lat="45.61365" lon="5.96566">
        <ele>1457</ele>
        <time>2021-05-29T18:08:50Z</time>
      </trkpt>
      <trkpt lat="45.61372" lon="5.96577">
        <ele>1463</ele>
        <time>2021-05-29T18:09:04Z</time>
      </trkpt>
      <trkpt lat="45.61371" lon="5.96582">
        <ele>1465</ele>
        <time>2021-05-29T18:09:09Z</time>
      </trkpt>
      <trkpt lat="45.61367" lon="5.96585">
        <ele>1465</ele>
        <time>2021-05-29T18:09:15Z</time>
      </trkpt>
      <trkpt lat="45.61369" lon="5.96592">
        <ele>1469</ele>
        <time>2021-05-29T18:09:22Z</time>
      </trkpt>
      <trkpt lat="45.61365" lon="5.96619">
        <ele>1483</ele>
        <time>2021-05-29T18:09:48Z</time>
      </trkpt>
      <trkpt lat="45.61368" lon="5.96626">
        <ele>1487</ele>
        <time>2021-05-29T18:09:55Z</time>
      </trkpt>
      <trkpt lat="45.61396" lon="5.96662">
        <ele>1508</ele>
        <time>2021-05-29T18:10:46Z</time>
      </trkpt>
      <trkpt lat="45.61408" lon="5.96692">
        <ele>1512</ele>
        <time>2021-05-29T18:11:18Z</time>
      </trkpt>
      <trkpt lat="45.61431" lon="5.9669">
        <ele>1512</ele>
        <time>2021-05-29T18:11:49Z</time>
      </trkpt>
      <trkpt lat="45.61442" lon="5.96661">
        <ele>1506</ele>
        <time>2021-05-29T18:12:19Z</time>
      </trkpt>
      <trkpt lat="45.61474" lon="5.96664">
        <ele>1506</ele>
        <time>2021-05-29T18:13:02Z</time>
      </trkpt>
      <trkpt lat="45.61508" lon="5.96697">
        <ele>1507</ele>
        <time>2021-05-29T18:13:57Z</time>
      </trkpt>
      <trkpt lat="45.61533" lon="5.96701">
        <ele>1504</ele>
        <time>2021-05-29T18:14:31Z</time>
      </trkpt>
      <trkpt lat="45.61552" lon="5.96714">
        <ele>1505</ele>
        <time>2021-05-29T18:14:59Z</time>
      </trkpt>
      <trkpt lat="45.61578" lon="5.96734">
        <ele>1508</ele>
        <time>2021-05-29T18:15:38Z</time>
      </trkpt>
      <trkpt lat="45.616" lon="5.96758">
        <ele>1513</ele>
        <time>2021-05-29T18:16:15Z</time>
      </trkpt>
      <trkpt lat="45.61621" lon="5.96761">
        <ele>1513</ele>
        <time>2021-05-29T18:16:43Z</time>
      </trkpt>
      <trkpt lat="45.61646" lon="5.96753">
        <ele>1514</ele>
        <time>2021-05-29T18:17:17Z</time>
      </trkpt>
      <trkpt lat="45.6167" lon="5.9676">
        <ele>1515</ele>
        <time>2021-05-29T18:17:50Z</time>
      </trkpt>
      <trkpt lat="45.61701" lon="5.96786">
        <ele>1516</ele>
        <time>2021-05-29T18:18:38Z</time>
      </trkpt>
      <trkpt lat="45.61729" lon="5.96797">
        <ele>1516</ele>
        <time>2021-05-29T18:19:17Z</time>
      </trkpt>
      <trkpt lat="45.61759" lon="5.96793">
        <ele>1516</ele>
        <time>2021-05-29T18:19:57Z</time>
      </trkpt>
      <trkpt lat="45.61777" lon="5.96782">
        <ele>1517</ele>
        <time>2021-05-29T18:20:23Z</time>
      </trkpt>
      <trkpt lat="45.61795" lon="5.96783">
        <ele>1517</ele>
        <time>2021-05-29T18:20:47Z</time>
      </trkpt>
      <trkpt lat="45.61823" lon="5.96813">
        <ele>1517</ele>
        <time>2021-05-29T18:21:34Z</time>
      </trkpt>
      <trkpt lat="45.61845" lon="5.96825">
        <ele>1519</ele>
        <time>2021-05-29T18:22:05Z</time>
      </trkpt>
      <trkpt lat="45.61882" lon="5.96842">
        <ele>1523</ele>
        <time>2021-05-29T18:22:57Z</time>
      </trkpt>
      <trkpt lat="45.61898" lon="5.96857">
        <ele>1524</ele>
        <time>2021-05-29T18:23:23Z</time>
      </trkpt>
      <trkpt lat="45.61916" lon="5.96866">
        <ele>1524</ele>
        <time>2021-05-29T18:23:48Z</time>
      </trkpt>
      <trkpt lat="45.61935" lon="5.96868">
        <ele>1526</ele>
        <time>2021-05-29T18:24:14Z</time>
      </trkpt>
      <trkpt lat="45.61955" lon="5.96866">
        <ele>1528</ele>
        <time>2021-05-29T18:24:40Z</time>
      </trkpt>
      <trkpt lat="45.61985" lon="5.96854">
        <ele>1533</ele>
        <time>2021-05-29T18:25:22Z</time>
      </trkpt>
      <trkpt lat="45.62017" lon="5.96829">
        <ele>1537</ele>
        <time>2021-05-29T18:26:11Z</time>
      </trkpt>
      <trkpt lat="45.6207" lon="5.9682">
        <ele>1537</ele>
        <time>2021-05-29T18:27:22Z</time>
      </trkpt>
      <trkpt lat="45.62097" lon="5.96808">
        <ele>1537</ele>
        <time>2021-05-29T18:27:59Z</time>
      </trkpt>
      <trkpt lat="45.62125" lon="5.96784">
        <ele>1534</ele>
        <time>2021-05-29T18:28:43Z</time>
      </trkpt>
      <trkpt lat="45.62152" lon="5.96789">
        <ele>1531</ele>
        <time>2021-05-29T18:29:19Z</time>
      </trkpt>
      <trkpt lat="45.62229" lon="5.96819">
        <ele>1527</ele>
        <time>2021-05-29T18:31:06Z</time>
      </trkpt>
      <trkpt lat="45.62301" lon="5.9686">
        <ele>1521</ele>
        <time>2021-05-29T18:32:49Z</time>
      </trkpt>
      <trkpt lat="45.62338" lon="5.9685">
        <ele>1517</ele>
        <time>2021-05-29T18:33:40Z</time>
      </trkpt>
      <trkpt lat="45.62406" lon="5.96894">
        <ele>1516</ele>
        <time>2021-05-29T18:35:19Z</time>
      </trkpt>
      <trkpt lat="45.62482" lon="5.96933">
        <ele>1522</ele>
        <time>2021-05-29T18:37:07Z</time>
      </trkpt>
      <trkpt lat="45.62516" lon="5.96933">
        <ele>1524</ele>
        <time>2021-05-29T18:37:52Z</time>
      </trkpt>
      <trkpt lat="45.62574" lon="5.96898">
        <ele>1526</ele>
        <time>2021-05-29T18:39:16Z</time>
      </trkpt>
      <trkpt lat="45.62633" lon="5.96945">
        <ele>1527</ele>
        <time>2021-05-29T18:40:46Z</time>
      </trkpt>
      <trkpt lat="45.62675" lon="5.96986">
        <ele>1522</ele>
        <time>2021-05-29T18:41:54Z</time>
      </trkpt>
      <trkpt lat="45.62729" lon="5.96966">
        <ele>1527</ele>
        <time>2021-05-29T18:43:09Z</time>
      </trkpt>
      <trkpt lat="45.62749" lon="5.96988">
        <ele>1524</ele>
        <time>2021-05-29T18:43:42Z</time>
      </trkpt>
      <trkpt lat="45.62769" lon="5.96999">
        <ele>1524</ele>
        <time>2021-05-29T18:44:11Z</time>
      </trkpt>
      <trkpt lat="45.62789" lon="5.96995">
        <ele>1526</ele>
        <time>2021-05-29T18:44:38Z</time>
      </trkpt>
      <trkpt lat="45.62811" lon="5.96975">
        <ele>1529</ele>
        <time>2021-05-29T18:45:13Z</time>
      </trkpt>
      <trkpt lat="45.62823" lon="5.96978">
        <ele>1530</ele>
        <time>2021-05-29T18:45:29Z</time>
      </trkpt>
      <trkpt lat="45.62851" lon="5.96962">
        <ele>1532</ele>
        <time>2021-05-29T18:46:09Z</time>
      </trkpt>
      <trkpt lat="45.62855" lon="5.96963">
        <ele>1532</ele>
        <time>2021-05-29T18:46:15Z</time>
      </trkpt>
      <trkpt lat="45.62879" lon="5.96952">
        <ele>1534</ele>
        <time>2021-05-29T18:46:48Z</time>
      </trkpt>
      <trkpt lat="45.62884" lon="5.96954">
        <ele>1535</ele>
        <time>2021-05-29T18:46:55Z</time>
      </trkpt>
      <trkpt lat="45.6289" lon="5.96967">
        <ele>1535</ele>
        <time>2021-05-29T18:47:10Z</time>
      </trkpt>
      <trkpt lat="45.62897" lon="5.96965">
        <ele>1536</ele>
        <time>2021-05-29T18:47:19Z</time>
      </trkpt>
      <trkpt lat="45.62906" lon="5.96966">
        <ele>1537</ele>
        <time>2021-05-29T18:47:31Z</time>
      </trkpt>
      <trkpt lat="45.62913" lon="5.96963">
        <ele>1537</ele>
        <time>2021-05-29T18:47:41Z</time>
      </trkpt>
      <trkpt lat="45.62919" lon="5.96954">
        <ele>1537</ele>
        <time>2021-05-29T18:47:53Z</time>
      </trkpt>
      <trkpt lat="45.62935" lon="5.96942">
        <ele>1535</ele>
        <time>2021-05-29T18:48:17Z</time>
      </trkpt>
      <trkpt lat="45.62949" lon="5.96922">
        <ele>1533</ele>
        <time>2021-05-29T18:48:43Z</time>
      </trkpt>
      <trkpt lat="45.62954" lon="5.96906">
        <ele>1529</ele>
        <time>2021-05-29T18:49:00Z</time>
      </trkpt>
      <trkpt lat="45.62958" lon="5.96902">
        <ele>1528</ele>
        <time>2021-05-29T18:49:06Z</time>
      </trkpt>
      <trkpt lat="45.62963" lon="5.96904">
        <ele>1528</ele>
        <time>2021-05-29T18:49:13Z</time>
      </trkpt>
      <trkpt lat="45.62974" lon="5.96927">
        <ele>1530</ele>
        <time>2021-05-29T18:49:39Z</time>
      </trkpt>
      <trkpt lat="45.62976" lon="5.96927">
        <ele>1530</ele>
        <time>2021-05-29T18:49:42Z</time>
      </trkpt>
      <trkpt lat="45.62983" lon="5.96911">
        <ele>1528</ele>
        <time>2021-05-29T18:49:59Z</time>
      </trkpt>
      <trkpt lat="45.62989" lon="5.96904">
        <ele>1526</ele>
        <time>2021-05-29T18:50:10Z</time>
      </trkpt>
      <trkpt lat="45.62996" lon="5.969">
        <ele>1525</ele>
        <time>2021-05-29T18:50:20Z</time>
      </trkpt>
      <trkpt lat="45.63032" lon="5.96898">
        <ele>1523</ele>
        <time>2021-05-29T18:51:08Z</time>
      </trkpt>
      <trkpt lat="45.63049" lon="5.96884">
        <ele>1520</ele>
        <time>2021-05-29T18:51:34Z</time>
      </trkpt>
      <trkpt lat="45.63058" lon="5.96869">
        <ele>1518</ele>
        <time>2021-05-29T18:51:52Z</time>
      </trkpt>
      <trkpt lat="45.63063" lon="5.96849">
        <ele>1515</ele>
        <time>2021-05-29T18:52:12Z</time>
      </trkpt>
      <trkpt lat="45.63076" lon="5.96694">
        <ele>1497</ele>
        <time>2021-05-29T18:54:38Z</time>
      </trkpt>
      <trkpt lat="45.63079" lon="5.9667">
        <ele>1498</ele>
        <time>2021-05-29T18:55:01Z</time>
      </trkpt>
      <trkpt lat="45.63085" lon="5.96644">
        <ele>1497</ele>
        <time>2021-05-29T18:55:26Z</time>
      </trkpt>
      <trkpt lat="45.63093" lon="5.96622">
        <ele>1494</ele>
        <time>2021-05-29T18:55:49Z</time>
      </trkpt>
      <trkpt lat="45.63104" lon="5.96603">
        <ele>1492</ele>
        <time>2021-05-29T18:56:12Z</time>
      </trkpt>
      <trkpt lat="45.63125" lon="5.96576">
        <ele>1489</ele>
        <time>2021-05-29T18:56:50Z</time>
      </trkpt>
      <trkpt lat="45.63158" lon="5.96515">
        <ele>1486</ele>
        <time>2021-05-29T18:58:02Z</time>
      </trkpt>
      <trkpt lat="45.63197" lon="5.96436">
        <ele>1480</ele>
        <time>2021-05-29T18:59:32Z</time>
      </trkpt>
      <trkpt lat="45.63218" lon="5.96415">
        <ele>1479</ele>
        <time>2021-05-29T19:00:06Z</time>
      </trkpt>
      <trkpt lat="45.63228" lon="5.9639">
        <ele>1476</ele>
        <time>2021-05-29T19:00:33Z</time>
      </trkpt>
      <trkpt lat="45.63236" lon="5.96364">
        <ele>1474</ele>
        <time>2021-05-29T19:01:00Z</time>
      </trkpt>
      <trkpt lat="45.63253" lon="5.96347">
        <ele>1473</ele>
        <time>2021-05-29T19:01:27Z</time>
      </trkpt>
      <trkpt lat="45.63275" lon="5.96321">
        <ele>1470</ele>
        <time>2021-05-29T19:02:06Z</time>
      </trkpt>
      <trkpt lat="45.63308" lon="5.96274">
        <ele>1466</ele>
        <time>2021-05-29T19:03:08Z</time>
      </trkpt>
      <trkpt lat="45.63332" lon="5.96255">
        <ele>1468</ele>
        <time>2021-05-29T19:03:44Z</time>
      </trkpt>
      <trkpt lat="45.63367" lon="5.96232">
        <ele>1461</ele>
        <time>2021-05-29T19:04:36Z</time>
      </trkpt>
      <trkpt lat="45.63379" lon="5.96219">
        <ele>1457</ele>
        <time>2021-05-29T19:04:56Z</time>
      </trkpt>
      <trkpt lat="45.63394" lon="5.96211">
        <ele>1453</ele>
        <time>2021-05-29T19:05:17Z</time>
      </trkpt>
      <trkpt lat="45.63411" lon="5.96196">
        <ele>1449</ele>
        <time>2021-05-29T19:05:44Z</time>
      </trkpt>
      <trkpt lat="45.63435" lon="5.96181">
        <ele>1439</ele>
        <time>2021-05-29T19:06:19Z</time>
      </trkpt>
      <trkpt lat="45.63461" lon="5.96173">
        <ele>1430</ele>
        <time>2021-05-29T19:06:54Z</time>
      </trkpt>
      <trkpt lat="45.63489" lon="5.96197">
        <ele>1425</ele>
        <time>2021-05-29T19:07:38Z</time>
      </trkpt>
      <trkpt lat="45.63576" lon="5.96253">
        <ele>1414</ele>
        <time>2021-05-29T19:09:45Z</time>
      </trkpt>
      <trkpt lat="45.63592" lon="5.96268">
        <ele>1412</ele>
        <time>2021-05-29T19:10:11Z</time>
      </trkpt>
      <trkpt lat="45.63632" lon="5.9629">
        <ele>1410</ele>
        <time>2021-05-29T19:11:08Z</time>
      </trkpt>
      <trkpt lat="45.63645" lon="5.96301">
        <ele>1411</ele>
        <time>2021-05-29T19:11:28Z</time>
      </trkpt>
      <trkpt lat="45.63658" lon="5.96304">
        <ele>1410</ele>
        <time>2021-05-29T19:11:46Z</time>
      </trkpt>
      <trkpt lat="45.63648" lon="5.96325">
        <ele>1415</ele>
        <time>2021-05-29T19:12:09Z</time>
      </trkpt>
      <trkpt lat="45.6365" lon="5.96343">
        <ele>1417</ele>
        <time>2021-05-29T19:12:26Z</time>
      </trkpt>
      <trkpt lat="45.63653" lon="5.96373">
        <ele>1417</ele>
        <time>2021-05-29T19:12:55Z</time>
      </trkpt>
      <trkpt lat="45.63667" lon="5.96446">
        <ele>1416</ele>
        <time>2021-05-29T19:14:05Z</time>
      </trkpt>
      <trkpt lat="45.63669" lon="5.96465">
        <ele>1415</ele>
        <time>2021-05-29T19:14:23Z</time>
      </trkpt>
      <trkpt lat="45.63669" lon="5.9648">
        <ele>1415</ele>
        <time>2021-05-29T19:14:37Z</time>
      </trkpt>
      <trkpt lat="45.63659" lon="5.96524">
        <ele>1412</ele>
        <time>2021-05-29T19:15:20Z</time>
      </trkpt>
      <trkpt lat="45.63659" lon="5.9655">
        <ele>1411</ele>
        <time>2021-05-29T19:15:45Z</time>
      </trkpt>
      <trkpt lat="45.63665" lon="5.96619">
        <ele>1407</ele>
        <time>2021-05-29T19:16:49Z</time>
      </trkpt>
      <trkpt lat="45.63664" lon="5.96661">
        <ele>1405</ele>
        <time>2021-05-29T19:17:29Z</time>
      </trkpt>
      <trkpt lat="45.63648" lon="5.96725">
        <ele>1409</ele>
        <time>2021-05-29T19:18:32Z</time>
      </trkpt>
      <trkpt lat="45.63648" lon="5.96741">
        <ele>1408</ele>
        <time>2021-05-29T19:18:47Z</time>
      </trkpt>
      <trkpt lat="45.6365" lon="5.96752">
        <ele>1407</ele>
        <time>2021-05-29T19:18:58Z</time>
      </trkpt>
      <trkpt lat="45.6368" lon="5.96815">
        <ele>1401</ele>
        <time>2021-05-29T19:20:09Z</time>
      </trkpt>
      <trkpt lat="45.63711" lon="5.96916">
        <ele>1401</ele>
        <time>2021-05-29T19:21:52Z</time>
      </trkpt>
      <trkpt lat="45.63718" lon="5.96948">
        <ele>1399</ele>
        <time>2021-05-29T19:22:23Z</time>
      </trkpt>
      <trkpt lat="45.63745" lon="5.97022">
        <ele>1391</ele>
        <time>2021-05-29T19:23:41Z</time>
      </trkpt>
      <trkpt lat="45.63752" lon="5.97046">
        <ele>1389</ele>
        <time>2021-05-29T19:24:05Z</time>
      </trkpt>
      <trkpt lat="45.63754" lon="5.97069">
        <ele>1388</ele>
        <time>2021-05-29T19:24:27Z</time>
      </trkpt>
      <trkpt lat="45.63757" lon="5.97177">
        <ele>1384</ele>
        <time>2021-05-29T19:26:08Z</time>
      </trkpt>
      <trkpt lat="45.63759" lon="5.97196">
        <ele>1384</ele>
        <time>2021-05-29T19:26:25Z</time>
      </trkpt>
      <trkpt lat="45.63774" lon="5.97271">
        <ele>1383</ele>
        <time>2021-05-29T19:27:38Z</time>
      </trkpt>
      <trkpt lat="45.63789" lon="5.97321">
        <ele>1382</ele>
        <time>2021-05-29T19:28:29Z</time>
      </trkpt>
      <trkpt lat="45.63819" lon="5.97478">
        <ele>1381</ele>
        <time>2021-05-29T19:31:01Z</time>
      </trkpt>
      <trkpt lat="45.63819" lon="5.97508">
        <ele>1383</ele>
        <time>2021-05-29T19:31:29Z</time>
      </trkpt>
      <trkpt lat="45.63815" lon="5.97576">
        <ele>1387</ele>
        <time>2021-05-29T19:32:33Z</time>
      </trkpt>
      <trkpt lat="45.63816" lon="5.97653">
        <ele>1373</ele>
        <time>2021-05-29T19:33:44Z</time>
      </trkpt>
      <trkpt lat="45.63806" lon="5.97662">
        <ele>1372</ele>
        <time>2021-05-29T19:34:00Z</time>
      </trkpt>
      <trkpt lat="45.638" lon="5.97683">
        <ele>1366</ele>
        <time>2021-05-29T19:34:21Z</time>
      </trkpt>
      <trkpt lat="45.63798" lon="5.97699">
        <ele>1360</ele>
        <time>2021-05-29T19:34:36Z</time>
      </trkpt>
      <trkpt lat="45.63815" lon="5.97733">
        <ele>1348</ele>
        <time>2021-05-29T19:35:15Z</time>
      </trkpt>
      <trkpt lat="45.63827" lon="5.97754">
        <ele>1342</ele>
        <time>2021-05-29T19:35:41Z</time>
      </trkpt>
      <trkpt lat="45.6385" lon="5.97762">
        <ele>1344</ele>
        <time>2021-05-29T19:36:12Z</time>
      </trkpt>
      <trkpt lat="45.63872" lon="5.97787">
        <ele>1344</ele>
        <time>2021-05-29T19:36:50Z</time>
      </trkpt>
      <trkpt lat="45.63855" lon="5.97792">
        <ele>1339</ele>
        <time>2021-05-29T19:37:13Z</time>
      </trkpt>
      <trkpt lat="45.63872" lon="5.97787">
        <ele>1344</ele>
        <time>2021-05-29T19:37:36Z</time>
      </trkpt>
      <trkpt lat="45.63896" lon="5.97795">
        <ele>1348</ele>
        <time>2021-05-29T19:38:09Z</time>
      </trkpt>
      <trkpt lat="45.63902" lon="5.97801">
        <ele>1349</ele>
        <time>2021-05-29T19:38:19Z</time>
      </trkpt>
      <trkpt lat="45.63905" lon="5.97809">
        <ele>1348</ele>
        <time>2021-05-29T19:38:27Z</time>
      </trkpt>
      <trkpt lat="45.639" lon="5.97892">
        <ele>1332</ele>
        <time>2021-05-29T19:39:45Z</time>
      </trkpt>
      <trkpt lat="45.63929" lon="5.98015">
        <ele>1319</ele>
        <time>2021-05-29T19:41:46Z</time>
      </trkpt>
      <trkpt lat="45.63959" lon="5.98036">
        <ele>1319</ele>
        <time>2021-05-29T19:42:31Z</time>
      </trkpt>
      <trkpt lat="45.64" lon="5.9805">
        <ele>1320</ele>
        <time>2021-05-29T19:43:27Z</time>
      </trkpt>
      <trkpt lat="45.64024" lon="5.98061">
        <ele>1320</ele>
        <time>2021-05-29T19:44:01Z</time>
      </trkpt>
      <trkpt lat="45.64069" lon="5.98051">
        <ele>1325</ele>
        <time>2021-05-29T19:45:01Z</time>
      </trkpt>
      <trkpt lat="45.64091" lon="5.98049">
        <ele>1327</ele>
        <time>2021-05-29T19:45:31Z</time>
      </trkpt>
      <trkpt lat="45.64105" lon="5.98057">
        <ele>1327</ele>
        <time>2021-05-29T19:45:51Z</time>
      </trkpt>
      <trkpt lat="45.64123" lon="5.98065">
        <ele>1327</ele>
        <time>2021-05-29T19:46:16Z</time>
      </trkpt>
      <trkpt lat="45.64156" lon="5.98067">
        <ele>1329</ele>
        <time>2021-05-29T19:47:00Z</time>
      </trkpt>
      <trkpt lat="45.64165" lon="5.98073">
        <ele>1328</ele>
        <time>2021-05-29T19:47:13Z</time>
      </trkpt>
      <trkpt lat="45.64205" lon="5.98081">
        <ele>1330</ele>
        <time>2021-05-29T19:48:07Z</time>
      </trkpt>
      <trkpt lat="45.64228" lon="5.98104">
        <ele>1329</ele>
        <time>2021-05-29T19:48:45Z</time>
      </trkpt>
      <trkpt lat="45.64255" lon="5.98113">
        <ele>1329</ele>
        <time>2021-05-29T19:49:22Z</time>
      </trkpt>
      <trkpt lat="45.6428" lon="5.98129">
        <ele>1330</ele>
        <time>2021-05-29T19:49:58Z</time>
      </trkpt>
      <trkpt lat="45.64325" lon="5.98208">
        <ele>1327</ele>
        <time>2021-05-29T19:51:33Z</time>
      </trkpt>
      <trkpt lat="45.64331" lon="5.98261">
        <ele>1323</ele>
        <time>2021-05-29T19:52:23Z</time>
      </trkpt>
      <trkpt lat="45.64386" lon="5.98303">
        <ele>1320</ele>
        <time>2021-05-29T19:53:47Z</time>
      </trkpt>
      <trkpt lat="45.64396" lon="5.98315">
        <ele>1320</ele>
        <time>2021-05-29T19:54:04Z</time>
      </trkpt>
      <trkpt lat="45.64385" lon="5.98314">
        <ele>1320</ele>
        <time>2021-05-29T19:54:19Z</time>
      </trkpt>
      <trkpt lat="45.64381" lon="5.98326">
        <ele>1319</ele>
        <time>2021-05-29T19:54:31Z</time>
      </trkpt>
      <trkpt lat="45.64317" lon="5.98326">
        <ele>1316</ele>
        <time>2021-05-29T19:55:57Z</time>
      </trkpt>
      <trkpt lat="45.64281" lon="5.9832">
        <ele>1313</ele>
        <time>2021-05-29T19:56:45Z</time>
      </trkpt>
      <trkpt lat="45.64252" lon="5.98319">
        <ele>1311</ele>
        <time>2021-05-29T19:57:24Z</time>
      </trkpt>
      <trkpt lat="45.64212" lon="5.98327">
        <ele>1305</ele>
        <time>2021-05-29T19:58:18Z</time>
      </trkpt>
      <trkpt lat="45.64192" lon="5.98327">
        <ele>1303</ele>
        <time>2021-05-29T19:58:44Z</time>
      </trkpt>
      <trkpt lat="45.64176" lon="5.98334">
        <ele>1300</ele>
        <time>2021-05-29T19:59:07Z</time>
      </trkpt>
      <trkpt lat="45.6414" lon="5.98355">
        <ele>1298</ele>
        <time>2021-05-29T19:59:58Z</time>
      </trkpt>
      <trkpt lat="45.64134" lon="5.9832">
        <ele>1299</ele>
        <time>2021-05-29T20:00:32Z</time>
      </trkpt>
    </trkseg>
  </trk>
</gpx>